createdAt,value
2019-04-19T00:01:15.681Z,98474.53
2019-04-19T00:04:24.605Z,98475.14
2019-04-19T00:07:32.096Z,98479.23
2019-04-19T00:10:48.393Z,98490.66
2019-04-19T00:13:47.366Z,98486.20
2019-04-19T00:16:55.387Z,98492.84
2019-04-19T00:20:25.564Z,98494.52
2019-04-19T00:23:21.413Z,98498.27
2019-04-19T00:26:19.282Z,98499.22
2019-04-19T00:29:37.925Z,98499.82
2019-04-19T00:32:48.069Z,98500.22
2019-04-19T00:35:43.318Z,98497.20
2019-04-19T00:39:04.407Z,98504.91
2019-04-19T00:42:35.431Z,98497.27
2019-04-19T00:45:57.245Z,98495.73
2019-04-19T00:48:59.627Z,98502.61
2019-04-19T00:52:08.885Z,98502.81
2019-04-19T00:55:10.293Z,98500.70
2019-04-19T00:58:16.318Z,98503.70
2019-04-19T01:01:21.505Z,98502.69
2019-04-19T01:04:28.078Z,98506.84
2019-04-19T01:07:36.365Z,98514.86
2019-04-19T01:10:59.133Z,98517.09
2019-04-19T01:14:07.234Z,98512.47
2019-04-19T01:17:15.196Z,98512.08
2019-04-19T01:20:11.847Z,98511.02
2019-04-19T01:23:18.242Z,98506.80
2019-04-19T01:26:25.623Z,98520.66
2019-04-19T01:29:38.276Z,98518.95
2019-04-19T01:32:43.276Z,98515.38
2019-04-19T01:35:51.601Z,98515.30
2019-04-19T01:39:14.525Z,98521.33
2019-04-19T01:42:26.473Z,98523.66
2019-04-19T01:45:46.043Z,98529.99
2019-04-19T01:49:05.645Z,98525.08
2019-04-19T01:52:30.862Z,98529.87
2019-04-19T01:55:23.803Z,98531.16
2019-04-19T01:58:24.404Z,98528.91
2019-04-19T02:01:33.320Z,98531.41
2019-04-19T02:04:39.657Z,98532.91
2019-04-19T02:07:49.779Z,98536.86
2019-04-19T02:11:48.368Z,98540.27
2019-04-19T02:14:53.876Z,98540.11
2019-04-19T02:17:54.337Z,98546.88
2019-04-19T02:21:02.349Z,98543.08
2019-04-19T02:24:08.921Z,98544.82
2019-04-19T02:27:17.902Z,98544.27
2019-04-19T02:30:35.409Z,98542.25
2019-04-19T02:34:09.101Z,98540.69
2019-04-19T02:37:08.329Z,98544.75
2019-04-19T02:40:35.072Z,98540.41
2019-04-19T02:43:33.683Z,98549.36
2019-04-19T02:46:44.434Z,98541.75
2019-04-19T02:53:02.312Z,98542.58
2019-04-19T02:56:04.013Z,98549.03
2019-04-19T02:59:25.915Z,98548.80
2019-04-19T03:02:38.286Z,98547.61
2019-04-19T03:08:14.920Z,98552.64
2019-04-19T03:11:35.430Z,98555.20
2019-04-19T03:14:46.503Z,98558.45
2019-04-19T03:17:58.607Z,98554.11
2019-04-19T03:20:59.328Z,98565.39
2019-04-19T03:24:12.394Z,98571.30
2019-04-19T03:27:13.643Z,98573.66
2019-04-19T03:30:37.933Z,98571.39
2019-04-19T03:36:47.889Z,98576.13
2019-04-19T03:40:08.518Z,98576.59
2019-04-19T03:43:31.463Z,98572.37
2019-04-19T03:46:40.729Z,98570.11
2019-04-19T03:49:45.180Z,98576.98
2019-04-19T03:52:48.798Z,98577.77
2019-04-19T03:56:06.485Z,98574.34
2019-04-19T03:58:49.229Z,98586.37
2019-04-19T04:01:59.229Z,98583.29
2019-04-19T04:05:09.703Z,98582.55
2019-04-19T04:08:21.414Z,98584.72
2019-04-19T04:11:51.067Z,98591.01
2019-04-19T04:15:04.690Z,98594.39
2019-04-19T04:18:02.729Z,98599.13
2019-04-19T04:21:09.553Z,98605.47
2019-04-19T04:24:22.409Z,98598.25
2019-04-19T04:27:38.944Z,98602.07
2019-04-19T04:30:43.576Z,98610.97
2019-04-19T04:33:52.447Z,98614.72
2019-04-19T04:37:01.770Z,98613.16
2019-04-19T04:39:59.831Z,98614.70
2019-04-19T04:43:22.954Z,98613.10
2019-04-19T04:46:46.605Z,98613.16
2019-04-19T04:50:14.312Z,98622.04
2019-04-19T04:53:10.946Z,98618.60
2019-04-19T04:56:21.597Z,98618.61
2019-04-19T04:59:28.858Z,98612.10
2019-04-19T05:02:51.582Z,98624.48
2019-04-19T05:06:09.369Z,98625.61
2019-04-19T05:09:15.812Z,98627.64
2019-04-19T05:12:27.090Z,98625.78
2019-04-19T05:15:26.591Z,98636.87
2019-04-19T05:18:34.821Z,98639.77
2019-04-19T05:21:42.644Z,98637.14
2019-04-19T05:24:56.475Z,98641.63
2019-04-19T05:28:00.981Z,98641.97
2019-04-19T05:30:57.320Z,98644.01
2019-04-19T05:37:25.107Z,98647.65
2019-04-19T05:40:38.867Z,98650.41
2019-04-19T05:44:21.379Z,98650.23
2019-04-19T05:47:20.739Z,98650.83
2019-04-19T05:50:30.374Z,98646.77
2019-04-19T05:53:29.879Z,98655.05
2019-04-19T05:56:24.800Z,98644.63
2019-04-19T05:59:42.404Z,98650.25
2019-04-19T06:02:53.383Z,98650.69
2019-04-19T06:06:15.994Z,98649.88
2019-04-19T06:08:56.202Z,98652.99
2019-04-19T06:12:09.558Z,98646.77
2019-04-19T06:15:40.604Z,98652.70
2019-04-19T06:18:38.963Z,98655.81
2019-04-19T06:21:52.345Z,98661.38
2019-04-19T06:25:01.016Z,98659.41
2019-04-19T06:28:21.142Z,98658.83
2019-04-19T06:31:21.730Z,98663.02
2019-04-19T06:34:29.150Z,98664.78
2019-04-19T06:37:21.494Z,98666.50
2019-04-19T06:40:30.029Z,98669.48
2019-04-19T06:43:47.543Z,98672.05
2019-04-19T06:47:12.595Z,98670.19
2019-04-19T06:50:09.262Z,98679.80
2019-04-19T06:53:16.819Z,98675.97
2019-04-19T06:56:30.284Z,98678.16
2019-04-19T06:59:47.808Z,98680.11
2019-04-19T07:02:41.211Z,98681.55
2019-04-19T07:06:06.388Z,98693.95
2019-04-19T07:09:22.097Z,98690.92
2019-04-19T07:12:24.591Z,98689.30
2019-04-19T07:18:36.059Z,98687.47
2019-04-19T07:21:46.869Z,98685.50
2019-04-19T07:25:05.010Z,98689.48
2019-04-19T07:27:55.620Z,98690.33
2019-04-19T07:30:59.071Z,98694.30
2019-04-19T07:34:16.492Z,98690.73
2019-04-19T07:37:28.084Z,98699.48
2019-04-19T07:40:42.959Z,98697.45
2019-04-19T07:44:06.939Z,98699.98
2019-04-19T07:47:29.585Z,98701.16
2019-04-19T07:50:39.255Z,98696.67
2019-04-19T07:53:42.368Z,98704.27
2019-04-19T07:57:00.493Z,98701.50
2019-04-19T08:00:19.060Z,98696.95
2019-04-19T08:03:38.288Z,98707.23
2019-04-19T08:09:43.765Z,98709.25
2019-04-19T08:12:54.157Z,98712.77
2019-04-19T08:15:59.658Z,98711.25
2019-04-19T08:28:21.946Z,98714.83
2019-04-19T08:31:16.433Z,98714.06
2019-04-19T08:34:24.970Z,98715.46
2019-04-19T08:37:36.444Z,98714.06
2019-04-19T08:40:57.225Z,98721.33
2019-04-19T08:44:05.128Z,98724.06
2019-04-19T08:47:17.480Z,98723.86
2019-04-19T08:50:18.453Z,98725.66
2019-04-19T08:53:41.794Z,98728.05
2019-04-19T08:56:43.022Z,98725.89
2019-04-19T09:00:05.688Z,98728.91
2019-04-19T09:03:02.913Z,98723.07
2019-04-19T09:06:56.538Z,98731.61
2019-04-19T09:09:32.724Z,98729.36
2019-04-19T09:12:31.256Z,98723.79
2019-04-19T09:15:40.992Z,98722.63
2019-04-19T09:18:59.562Z,98727.44
2019-04-19T09:21:54.386Z,98724.61
2019-04-19T09:24:57.725Z,98720.65
2019-04-19T09:28:25.067Z,98718.64
2019-04-19T09:31:22.706Z,98718.34
2019-04-19T09:34:19.532Z,98710.97
2019-04-19T09:37:40.406Z,98716.59
2019-04-19T09:40:39.313Z,98712.71
2019-04-19T09:43:52.220Z,98707.00
2019-04-19T09:46:47.109Z,98706.92
2019-04-19T09:50:09.157Z,98701.48
2019-04-19T09:53:32.754Z,98698.05
2019-04-19T09:56:27.618Z,98698.20
2019-04-19T09:59:27.188Z,98693.14
2019-04-19T10:02:31.883Z,98697.20
2019-04-19T10:05:34.968Z,98700.85
2019-04-19T10:08:42.105Z,98697.72
2019-04-19T10:11:48.878Z,98690.91
2019-04-19T10:14:55.695Z,98691.75
2019-04-19T10:18:02.768Z,98695.06
2019-04-19T10:21:26.384Z,98696.55
2019-04-19T10:24:29.510Z,98698.63
2019-04-19T10:27:36.104Z,98698.28
2019-04-19T10:30:53.138Z,98686.89
2019-04-19T10:34:02.929Z,98698.97
2019-04-19T10:37:08.095Z,98692.06
2019-04-19T10:40:15.583Z,98688.23
2019-04-19T10:43:23.180Z,98680.92
2019-04-19T10:46:30.805Z,98678.27
2019-04-19T10:49:45.845Z,98688.05
2019-04-19T10:52:46.070Z,98681.66
2019-04-19T10:55:58.895Z,98684.22
2019-04-19T10:59:05.290Z,98683.14
2019-04-19T11:02:11.763Z,98681.93
2019-04-19T11:05:20.673Z,98674.42
2019-04-19T11:08:28.640Z,98680.34
2019-04-19T11:11:37.289Z,98673.66
2019-04-19T11:14:44.095Z,98679.15
2019-04-19T11:17:53.785Z,98666.39
2019-04-19T11:21:01.007Z,98675.61
2019-04-19T11:24:09.628Z,98675.45
2019-04-19T11:27:17.103Z,98673.86
2019-04-19T11:30:55.127Z,98679.91
2019-04-19T11:34:01.792Z,98676.20
2019-04-19T11:37:10.715Z,98676.52
2019-04-19T11:40:17.367Z,98672.70
2019-04-19T11:43:25.128Z,98669.18
2019-04-19T11:46:31.952Z,98671.14
2019-04-19T11:49:41.966Z,98666.80
2019-04-19T11:53:06.198Z,98668.30
2019-04-19T11:56:54.198Z,98665.55
2019-04-19T12:00:15.582Z,98671.39
2019-04-19T12:03:25.631Z,98668.25
2019-04-19T12:06:34.315Z,98658.41
2019-04-19T12:09:40.758Z,98666.56
2019-04-19T12:12:47.243Z,98668.27
2019-04-19T12:15:56.902Z,98662.01
2019-04-19T12:19:04.352Z,98659.58
2019-04-19T12:22:10.805Z,98652.06
2019-04-19T12:25:17.828Z,98661.95
2019-04-19T12:28:25.907Z,98655.39
2019-04-19T12:31:33.627Z,98657.83
2019-04-19T12:34:40.428Z,98653.55
2019-04-19T12:37:47.508Z,98650.22
2019-04-19T12:40:58.358Z,98650.73
2019-04-19T12:44:04.997Z,98642.98
2019-04-19T12:47:11.141Z,98637.47
2019-04-19T12:50:17.970Z,98641.78
2019-04-19T12:53:25.281Z,98642.83
2019-04-19T12:56:31.863Z,98648.01
2019-04-19T12:59:38.134Z,98640.12
2019-04-19T13:02:49.891Z,98627.03
2019-04-19T13:05:56.062Z,98621.53
2019-04-19T13:09:03.322Z,98627.92
2019-04-19T13:12:11.072Z,98619.76
2019-04-19T13:15:17.730Z,98616.74
2019-04-19T13:18:24.429Z,98602.64
2019-04-19T13:21:32.309Z,98611.69
2019-04-19T13:24:40.535Z,98608.69
2019-04-19T13:27:54.377Z,98603.69
2019-04-19T13:30:59.767Z,98599.89
2019-04-19T13:34:07.211Z,98597.00
2019-04-19T13:37:47.712Z,98601.17
2019-04-19T13:41:14.791Z,98589.65
2019-04-19T13:44:20.948Z,98590.28
2019-04-19T13:47:28.770Z,98582.93
2019-04-19T13:50:47.590Z,98582.55
2019-04-19T13:53:54.540Z,98586.26
2019-04-19T13:57:01.728Z,98579.94
2019-04-19T14:00:14.139Z,98561.45
2019-04-19T14:03:21.425Z,98578.63
2019-04-19T14:06:28.594Z,98580.78
2019-04-19T14:09:35.175Z,98576.36
2019-04-19T14:12:42.970Z,98578.61
2019-04-19T14:15:51.099Z,98570.27
2019-04-19T14:18:58.408Z,98570.80
2019-04-19T14:22:05.046Z,98564.42
2019-04-19T14:25:11.706Z,98565.89
2019-04-19T14:28:18.872Z,98564.13
2019-04-19T14:31:28.319Z,98561.13
2019-04-19T14:34:35.315Z,98564.59
2019-04-19T14:37:43.753Z,98553.72
2019-04-19T14:40:51.350Z,98553.05
2019-04-19T14:43:57.832Z,98555.14
2019-04-19T14:47:05.096Z,98548.94
2019-04-19T14:50:13.164Z,98541.59
2019-04-19T14:53:20.214Z,98534.62
2019-04-19T14:56:26.476Z,98534.31
2019-04-19T14:59:33.205Z,98539.34
2019-04-19T15:02:48.520Z,98537.63
2019-04-19T15:05:57.441Z,98528.14
2019-04-19T15:09:05.756Z,98524.68
2019-04-19T15:12:13.050Z,98535.53
2019-04-19T15:15:19.778Z,98529.73
2019-04-19T15:18:26.137Z,98529.93
2019-04-19T15:21:32.399Z,98520.00
2019-04-19T15:24:38.904Z,98522.00
2019-04-19T15:27:45.120Z,98521.56
2019-04-19T15:30:52.499Z,98522.00
2019-04-19T15:33:59.088Z,98518.42
2019-04-19T15:37:05.362Z,98517.74
2019-04-19T15:40:14.046Z,98514.87
2019-04-19T15:43:21.300Z,98510.63
2019-04-19T15:46:29.461Z,98516.64
2019-04-19T15:49:36.012Z,98517.11
2019-04-19T15:52:42.308Z,98514.06
2019-04-19T15:55:51.184Z,98508.63
2019-04-19T15:59:03.031Z,98513.39
2019-04-19T16:02:26.230Z,98512.63
2019-04-19T16:06:00.378Z,98508.06
2019-04-19T16:09:39.709Z,98509.68
2019-04-19T16:12:47.771Z,98508.84
2019-04-19T16:15:54.241Z,98509.02
2019-04-19T16:19:00.535Z,98515.09
2019-04-19T16:22:09.528Z,98508.27
2019-04-19T16:25:17.029Z,98513.48
2019-04-19T16:28:23.496Z,98503.69
2019-04-19T16:31:30.604Z,98507.23
2019-04-19T16:34:38.721Z,98503.59
2019-04-19T16:37:45.285Z,98501.77
2019-04-19T16:40:52.586Z,98504.83
2019-04-19T16:43:59.838Z,98502.83
2019-04-19T16:47:06.447Z,98499.89
2019-04-19T16:50:14.551Z,98498.67
2019-04-19T16:53:21.913Z,98501.97
2019-04-19T16:56:29.950Z,98497.73
2019-04-19T16:59:40.107Z,98502.63
2019-04-19T17:02:47.332Z,98500.40
2019-04-19T17:05:55.453Z,98499.34
2019-04-19T17:09:02.592Z,98497.98
2019-04-19T17:12:10.675Z,98502.14
2019-04-19T17:15:34.815Z,98499.86
2019-04-19T17:18:57.303Z,98503.13
2019-04-19T17:22:11.423Z,98505.66
2019-04-19T17:25:13.250Z,98505.52
2019-04-19T17:28:21.016Z,98502.56
2019-04-19T17:31:27.687Z,98506.31
2019-04-19T17:34:36.196Z,98505.32
2019-04-19T17:37:44.516Z,98517.00
2019-04-19T17:40:52.788Z,98519.38
2019-04-19T17:43:59.512Z,98516.53
2019-04-19T17:47:06.920Z,98516.32
2019-04-19T17:50:16.583Z,98516.59
2019-04-19T17:53:25.840Z,98514.30
2019-04-19T17:56:31.290Z,98519.23
2019-04-19T17:59:38.338Z,98523.71
2019-04-19T18:02:46.858Z,98529.44
2019-04-19T18:05:54.058Z,98533.12
2019-04-19T18:09:08.030Z,98534.62
2019-04-19T18:12:11.459Z,98532.31
2019-04-19T18:15:19.578Z,98543.29
2019-04-19T18:18:30.709Z,98548.23
2019-04-19T18:21:37.571Z,98557.30
2019-04-19T18:24:47.721Z,98554.13
2019-04-19T18:27:53.821Z,98562.97
2019-04-19T18:31:00.767Z,98556.73
2019-04-19T18:34:12.802Z,98560.20
2019-04-19T18:37:18.607Z,98563.16
2019-04-19T18:40:27.017Z,98565.63
2019-04-19T18:43:40.741Z,98566.65
2019-04-19T18:46:41.281Z,98569.41
2019-04-19T18:49:49.861Z,98570.31
2019-04-19T18:53:07.581Z,98576.32
2019-04-19T18:56:13.316Z,98572.38
2019-04-19T18:59:20.260Z,98576.81
2019-04-19T19:02:26.339Z,98576.81
2019-04-19T19:05:35.831Z,98580.09
2019-04-19T19:08:45.771Z,98580.59
2019-04-19T19:11:59.067Z,98578.63
2019-04-19T19:15:02.279Z,98578.07
2019-04-19T19:18:08.296Z,98579.29
2019-04-19T19:21:16.230Z,98579.84
2019-04-19T19:24:47.833Z,98579.91
2019-04-19T19:27:33.743Z,98584.96
2019-04-19T19:30:40.596Z,98577.61
2019-04-19T19:33:50.084Z,98579.52
2019-04-19T19:36:58.743Z,98580.19
2019-04-19T19:40:15.572Z,98580.45
2019-04-19T19:43:36.636Z,98577.92
2019-04-19T19:46:47.581Z,98574.42
2019-04-19T19:49:53.590Z,98575.77
2019-04-19T19:52:59.638Z,98584.37
2019-04-19T19:56:29.047Z,98585.11
2019-04-19T19:59:07.785Z,98588.91
2019-04-19T20:02:20.998Z,98585.13
2019-04-19T20:05:22.225Z,98586.08
2019-04-19T20:08:32.135Z,98581.91
2019-04-19T20:11:34.748Z,98580.93
2019-04-19T20:14:40.779Z,98580.86
2019-04-19T20:17:54.478Z,98583.53
2019-04-19T20:20:56.648Z,98583.37
2019-04-19T20:24:14.108Z,98587.91
2019-04-19T20:27:18.690Z,98583.45
2019-04-19T20:30:19.747Z,98584.25
2019-04-19T20:33:33.431Z,98582.24
2019-04-19T20:36:38.861Z,98589.98
2019-04-19T20:39:48.258Z,98598.09
2019-04-19T20:43:14.730Z,98593.53
2019-04-19T20:46:11.866Z,98600.64
2019-04-19T20:49:11.811Z,98594.64
2019-04-19T20:52:40.410Z,98592.87
2019-04-19T20:55:55.362Z,98597.87
2019-04-19T20:58:49.000Z,98596.12
2019-04-19T21:01:50.738Z,98602.66
2019-04-19T21:05:01.022Z,98609.89
2019-04-19T21:08:10.713Z,98612.16
2019-04-19T21:11:15.025Z,98605.48
2019-04-19T21:14:27.293Z,98615.98
2019-04-19T21:17:33.801Z,98616.97
2019-04-19T21:20:40.471Z,98614.11
2019-04-19T21:23:56.912Z,98615.91
2019-04-19T21:27:02.002Z,98620.09
2019-04-19T21:30:08.185Z,98615.19
2019-04-19T21:33:15.960Z,98620.81
2019-04-19T21:36:22.093Z,98612.13
2019-04-19T21:39:39.148Z,98619.95
2019-04-19T21:42:46.684Z,98613.25
2019-04-19T21:45:51.308Z,98618.18
2019-04-19T21:48:55.439Z,98620.66
2019-04-19T21:52:13.985Z,98627.09
2019-04-19T21:55:25.396Z,98623.99
2019-04-19T21:58:24.933Z,98624.00
2019-04-19T22:01:34.802Z,98625.52
2019-04-19T22:04:45.942Z,98623.55
2019-04-19T22:07:49.562Z,98613.58
2019-04-19T22:10:56.475Z,98617.54
2019-04-19T22:14:04.430Z,98615.33
2019-04-19T22:17:16.858Z,98620.78
2019-04-19T22:20:22.725Z,98617.50
2019-04-19T22:23:28.666Z,98624.52
2019-04-19T22:26:41.627Z,98623.83
2019-04-19T22:29:45.273Z,98629.84
2019-04-19T22:32:55.440Z,98631.13
2019-04-19T22:36:01.385Z,98632.13
2019-04-19T22:39:09.678Z,98627.02
2019-04-19T22:42:19.160Z,98630.24
2019-04-19T22:45:26.974Z,98632.83
2019-04-19T22:48:33.729Z,98626.86
2019-04-19T22:51:43.166Z,98629.16
2019-04-19T22:54:50.775Z,98630.91
2019-04-19T22:58:00.716Z,98627.23
2019-04-19T23:01:15.790Z,98628.04
2019-04-19T23:04:23.545Z,98632.48
2019-04-19T23:07:28.232Z,98640.91
2019-04-19T23:10:45.152Z,98633.45
2019-04-19T23:13:45.388Z,98636.14
2019-04-19T23:16:55.365Z,98635.76
2019-04-19T23:20:01.129Z,98635.26
2019-04-19T23:23:14.760Z,98636.20
2019-04-19T23:26:28.196Z,98631.53
2019-04-19T23:29:28.419Z,98633.69
2019-04-19T23:32:36.239Z,98641.30
2019-04-19T23:35:42.265Z,98632.30
2019-04-19T23:38:52.132Z,98632.88
2019-04-19T23:41:57.734Z,98631.63
2019-04-19T23:45:04.251Z,98632.62
2019-04-19T23:48:12.916Z,98623.67
2019-04-19T23:51:19.007Z,98621.20
2019-04-19T23:54:29.555Z,98614.37
2019-04-19T23:57:39.452Z,98611.27
